Terminal Aerodrome Forecast
Issued by NWS

Home | Current Version | Previous Version | Text Only | Print | Product List | Glossary On
Versions: 1 2 3 4 5 6 7 8 9 10 11 12
000
FTUS45 KRIW 262328
TAFBPI
TAF
KBPI 262328Z 2700/2724 01012G18KT P6SM VCSH SCT050 BKN080
     FM270200 34009KT P6SM -SHRA BKN050
     FM270700 VRB05KT P6SM BKN080
     FM271300 VRB05KT P6SM SCT090
     FM272100 VRB10G18KT P6SM VCTS SCT070CB BKN110=

USA.gov is the U.S. government's official web portal to all federal, state and local government web resources and services.